Terminal Aerodrome Forecast
Issued by NWS Wilmington, OH

Current Version | Previous Version | Text Only | Print | Product List | Glossary Off
Versions: 1 2 3 4 5 6 7 8 9 10 11 12 13 14 15 16 17

568
FTUS41 KILN 250122 AAA
TAFCMH
TAF AMD
KCMH 250122Z 2501/2524 18007KT P6SM FEW050 SCT250
     FM251500 18009KT P6SM BKN035 OVC200
     FM252200 14007KT P6SM BKN035 OVC200=

USA.gov is the U.S. government's official web portal to all federal, state and local government web resources and services.